createdAt,value
2018-03-06T00:00:13.171Z,99372.87
2018-03-06T00:02:41.834Z,99377.06
2018-03-06T00:05:10.534Z,99371.00
2018-03-06T00:07:39.111Z,99367.43
2018-03-06T00:10:07.926Z,99371.95
2018-03-06T00:12:36.781Z,99374.97
2018-03-06T00:15:05.420Z,99379.11
2018-03-06T00:17:33.997Z,99386.70
2018-03-06T00:20:02.494Z,99377.94
2018-03-06T00:22:30.997Z,99376.72
2018-03-06T00:24:59.502Z,99379.91
2018-03-06T00:27:28.797Z,99390.06
2018-03-06T00:29:57.400Z,99383.02
2018-03-06T00:32:25.875Z,99380.11
2018-03-06T00:34:55.453Z,99380.58
2018-03-06T00:37:24.759Z,99382.25
2018-03-06T00:39:53.336Z,99387.12
2018-03-06T00:42:21.889Z,99389.89
2018-03-06T00:44:50.337Z,99391.44
2018-03-06T00:47:18.802Z,99384.95
2018-03-06T00:49:48.491Z,99385.82
2018-03-06T00:52:16.968Z,99381.69
2018-03-06T00:54:45.561Z,99382.23
2018-03-06T00:57:14.099Z,99381.12
2018-03-06T00:59:42.551Z,99380.64
2018-03-06T01:02:11.063Z,99379.48
2018-03-06T01:04:39.719Z,99381.39
2018-03-06T01:07:08.188Z,99376.71
2018-03-06T01:09:36.733Z,99380.36
2018-03-06T01:12:05.275Z,99378.78
2018-03-06T01:14:33.778Z,99375.88
2018-03-06T01:17:03.061Z,99367.95
2018-03-06T01:19:31.598Z,99368.95
2018-03-06T01:22:00.059Z,99374.81
2018-03-06T01:24:28.577Z,99366.79
2018-03-06T01:26:57.243Z,99367.82
2018-03-06T01:29:25.786Z,99362.98
2018-03-06T01:31:54.344Z,99358.94
2018-03-06T01:34:22.923Z,99362.08
2018-03-06T01:36:51.371Z,99360.42
2018-03-06T01:39:19.942Z,99355.30
2018-03-06T01:41:48.523Z,99349.06
2018-03-06T01:44:17.017Z,99350.55
2018-03-06T01:46:45.582Z,99347.86
2018-03-06T01:49:15.309Z,99346.69
2018-03-06T01:51:55.674Z,99348.89
2018-03-06T01:54:24.484Z,99349.11
2018-03-06T01:56:52.990Z,99350.69
2018-03-06T01:59:21.434Z,99351.64
2018-03-06T02:01:50.796Z,99340.45
2018-03-06T02:04:19.394Z,99336.48
2018-03-06T02:06:47.874Z,99337.32
2018-03-06T02:09:16.671Z,99330.98
2018-03-06T02:11:45.253Z,99333.50
2018-03-06T02:14:13.833Z,99331.05
2018-03-06T02:16:42.629Z,99318.84
2018-03-06T02:19:11.202Z,99321.98
2018-03-06T02:21:39.992Z,99317.44
2018-03-06T02:24:09.003Z,99319.31
2018-03-06T02:26:37.576Z,99313.39
2018-03-06T02:29:06.148Z,99321.48
2018-03-06T02:31:35.712Z,99323.16
2018-03-06T02:34:04.213Z,99328.56
2018-03-06T02:36:32.696Z,99330.50
2018-03-06T02:39:01.203Z,99331.72
2018-03-06T02:41:29.683Z,99333.32
2018-03-06T02:43:58.200Z,99333.27
2018-03-06T02:46:27.525Z,99328.77
2018-03-06T02:48:56.000Z,99320.12
2018-03-06T02:51:24.525Z,99330.25
2018-03-06T02:53:53.904Z,99324.72
2018-03-06T02:56:22.392Z,99321.44
2018-03-06T02:58:50.902Z,99323.02
2018-03-06T03:01:19.801Z,99321.30
2018-03-06T03:03:48.320Z,99318.13
2018-03-06T03:06:17.284Z,99317.17
2018-03-06T03:08:46.006Z,99311.89
2018-03-06T03:11:14.506Z,99311.01
2018-03-06T03:13:43.151Z,99309.53
2018-03-06T03:16:11.755Z,99298.56
2018-03-06T03:18:40.201Z,99298.77
2018-03-06T03:21:08.652Z,99294.49
2018-03-06T03:23:37.930Z,99293.33
2018-03-06T03:26:06.457Z,99300.63
2018-03-06T03:28:34.938Z,99302.98
2018-03-06T03:31:03.455Z,99297.45
2018-03-06T03:33:32.006Z,99307.42
2018-03-06T03:36:00.488Z,99307.84
2018-03-06T03:38:28.989Z,99313.95
2018-03-06T03:40:57.450Z,99308.48
2018-03-06T03:43:25.903Z,99310.95
2018-03-06T03:45:54.446Z,99307.20
2018-03-06T03:48:23.868Z,99303.77
2018-03-06T03:50:52.370Z,99307.16
2018-03-06T03:53:20.876Z,99296.77
2018-03-06T03:55:50.033Z,99301.36
2018-03-06T03:58:18.508Z,99299.03
2018-03-06T04:00:47.445Z,99289.32
2018-03-06T04:03:15.906Z,99295.50
2018-03-06T04:05:44.382Z,99302.26
2018-03-06T04:08:13.085Z,99303.16
2018-03-06T04:10:41.712Z,99309.73
2018-03-06T04:13:10.185Z,99303.41
2018-03-06T04:15:38.918Z,99302.98
2018-03-06T04:18:07.452Z,99312.32
2018-03-06T04:20:36.447Z,99309.85
2018-03-06T04:23:05.032Z,99308.95
2018-03-06T04:25:37.040Z,99303.56
2018-03-06T04:28:06.309Z,99298.45
2018-03-06T04:30:34.872Z,99300.24
2018-03-06T04:33:03.374Z,99304.45
2018-03-06T04:35:31.933Z,99290.64
2018-03-06T04:38:00.576Z,99298.44
2018-03-06T04:40:29.042Z,99287.21
2018-03-06T04:42:58.055Z,99292.34
2018-03-06T04:45:26.572Z,99291.12
2018-03-06T04:47:56.346Z,99296.12
2018-03-06T04:50:25.172Z,99292.42
2018-03-06T04:52:53.697Z,99285.58
2018-03-06T04:55:22.667Z,99287.37
2018-03-06T04:57:51.184Z,99291.22
2018-03-06T05:00:19.666Z,99287.99
2018-03-06T05:02:48.084Z,99287.27
2018-03-06T05:05:16.980Z,99285.80
2018-03-06T05:07:45.467Z,99281.09
2018-03-06T05:10:14.007Z,99282.45
2018-03-06T05:12:43.063Z,99287.67
2018-03-06T05:15:11.649Z,99291.30
2018-03-06T05:17:40.209Z,99289.84
2018-03-06T05:20:08.910Z,99279.06
2018-03-06T05:22:37.550Z,99287.55
2018-03-06T05:25:06.229Z,99285.03
2018-03-06T05:27:35.229Z,99285.31
2018-03-06T05:30:03.760Z,99282.08
2018-03-06T05:32:32.286Z,99283.39
2018-03-06T05:35:00.818Z,99275.80
2018-03-06T05:37:29.346Z,99272.22
2018-03-06T05:39:57.785Z,99275.95
2018-03-06T05:42:26.402Z,99275.48
2018-03-06T05:44:54.949Z,99275.95
2018-03-06T05:47:23.504Z,99272.22
2018-03-06T05:49:52.044Z,99275.64
2018-03-06T05:52:20.497Z,99271.80
2018-03-06T05:54:48.950Z,99275.28
2018-03-06T05:57:17.698Z,99275.28
2018-03-06T05:59:46.270Z,99278.27
2018-03-06T06:02:15.121Z,99282.47
2018-03-06T06:04:43.697Z,99284.81
2018-03-06T06:07:12.279Z,99287.67
2018-03-06T06:09:40.922Z,99285.50
2018-03-06T06:12:11.656Z,99283.34
2018-03-06T06:14:40.285Z,99280.44
2018-03-06T06:17:08.970Z,99281.92
2018-03-06T06:19:37.738Z,99274.44
2018-03-06T06:22:06.219Z,99287.79
2018-03-06T06:24:34.734Z,99282.46
2018-03-06T06:27:03.306Z,99290.02
2018-03-06T06:29:31.751Z,99294.75
2018-03-06T06:32:00.194Z,99287.32
2018-03-06T06:34:28.755Z,99295.06
2018-03-06T06:36:57.329Z,99291.59
2018-03-06T06:39:25.776Z,99288.20
2018-03-06T06:41:54.387Z,99292.80
2018-03-06T06:44:22.817Z,99294.70
2018-03-06T06:46:51.320Z,99291.83
2018-03-06T06:49:20.112Z,99290.09
2018-03-06T06:51:48.778Z,99290.78
2018-03-06T06:54:17.604Z,99289.46
2018-03-06T06:56:47.122Z,99289.81
2018-03-06T06:59:15.777Z,99286.44
2018-03-06T07:01:44.318Z,99291.92
2018-03-06T07:04:14.833Z,99286.99
2018-03-06T07:06:43.759Z,99290.11
2018-03-06T07:09:12.491Z,99294.47
2018-03-06T07:11:41.072Z,99287.59
2018-03-06T07:14:09.756Z,99286.33
2018-03-06T07:16:38.650Z,99286.11
2018-03-06T07:19:07.546Z,99292.84
2018-03-06T07:21:36.127Z,99285.44
2018-03-06T07:24:04.703Z,99291.25
2018-03-06T07:26:33.471Z,99287.62
2018-03-06T07:29:02.017Z,99288.30
2018-03-06T07:31:30.456Z,99290.22
2018-03-06T07:33:59.038Z,99287.50
2018-03-06T07:36:27.542Z,99297.94
2018-03-06T07:38:55.974Z,99298.52
2018-03-06T07:41:24.494Z,99294.92
2018-03-06T07:43:52.971Z,99304.16
2018-03-06T07:46:21.555Z,99301.45
2018-03-06T07:48:50.119Z,99297.80
2018-03-06T07:51:19.422Z,99300.02
2018-03-06T07:53:47.924Z,99305.73
2018-03-06T07:56:17.498Z,99306.44
2018-03-06T07:58:46.080Z,99305.03
2018-03-06T08:01:14.684Z,99305.40
2018-03-06T08:03:45.106Z,99295.52
2018-03-06T08:06:13.800Z,99305.00
2018-03-06T08:08:42.585Z,99300.02
2018-03-06T08:11:11.266Z,99301.03
2018-03-06T08:13:39.747Z,99303.88
2018-03-06T08:16:08.384Z,99298.39
2018-03-06T08:18:37.121Z,99298.16
2018-03-06T08:21:05.609Z,99299.01
2018-03-06T08:23:34.185Z,99305.74
2018-03-06T08:26:02.980Z,99291.84
2018-03-06T08:28:31.582Z,99290.65
2018-03-06T08:31:00.149Z,99285.66
2018-03-06T08:33:29.837Z,99289.44
2018-03-06T08:35:58.282Z,99295.89
2018-03-06T08:38:26.825Z,99289.55
2018-03-06T08:40:55.374Z,99289.50
2018-03-06T08:43:23.821Z,99294.05
2018-03-06T08:45:52.302Z,99291.14
2018-03-06T08:48:20.829Z,99293.79
2018-03-06T08:50:49.314Z,99298.88
2018-03-06T08:53:17.745Z,99298.42
2018-03-06T08:55:46.263Z,99293.48
2018-03-06T08:58:14.748Z,99294.23
2018-03-06T09:00:43.241Z,99298.12
2018-03-06T09:03:12.176Z,99293.19
2018-03-06T09:05:40.824Z,99291.86
2018-03-06T09:08:09.491Z,99290.78
2018-03-06T09:10:38.071Z,99289.80
2018-03-06T09:13:06.727Z,99288.41
2018-03-06T09:15:35.309Z,99287.14
2018-03-06T09:18:04.702Z,99289.73
2018-03-06T09:20:33.204Z,99280.47
2018-03-06T09:23:01.674Z,99282.95
2018-03-06T09:25:31.483Z,99280.73
2018-03-06T09:27:59.968Z,99285.28
2018-03-06T09:30:28.453Z,99286.94
2018-03-06T09:32:56.960Z,99284.75
2018-03-06T09:35:25.413Z,99277.27
2018-03-06T09:37:53.846Z,99283.52
2018-03-06T09:40:22.429Z,99282.52
2018-03-06T09:42:50.857Z,99278.67
2018-03-06T09:45:19.305Z,99278.59
2018-03-06T09:47:48.053Z,99279.70
2018-03-06T09:50:16.739Z,99277.41
2018-03-06T09:52:45.219Z,99282.85
2018-03-06T09:55:13.905Z,99274.73
2018-03-06T09:57:42.528Z,99280.43
2018-03-06T10:00:11.170Z,99277.76
2018-03-06T10:02:39.772Z,99275.38
2018-03-06T10:05:08.442Z,99280.42
2018-03-06T10:07:37.037Z,99277.18
2018-03-06T10:10:05.712Z,99280.50
2018-03-06T10:12:34.199Z,99277.28
2018-03-06T10:15:02.700Z,99270.05
2018-03-06T10:17:31.212Z,99278.50
2018-03-06T10:19:59.749Z,99270.52
2018-03-06T10:22:28.285Z,99266.78
2018-03-06T10:24:57.146Z,99269.41
2018-03-06T10:27:27.650Z,99274.69
2018-03-06T10:29:56.131Z,99271.55
2018-03-06T10:32:24.604Z,99265.40
2018-03-06T10:34:53.189Z,99264.94
2018-03-06T10:37:21.673Z,99253.09
2018-03-06T10:39:50.196Z,99247.64
2018-03-06T10:42:18.830Z,99253.47
2018-03-06T10:44:47.445Z,99250.86
2018-03-06T10:47:15.965Z,99240.22
2018-03-06T10:49:44.397Z,99244.56
2018-03-06T10:52:13.326Z,99244.72
2018-03-06T10:54:41.898Z,99244.81
2018-03-06T10:57:10.467Z,99249.15
2018-03-06T10:59:38.940Z,99252.16
2018-03-06T11:02:07.708Z,99248.98
2018-03-06T11:04:36.329Z,99254.68
2018-03-06T11:07:04.808Z,99248.97
2018-03-06T11:09:33.292Z,99246.44
2018-03-06T11:12:01.865Z,99243.02
2018-03-06T11:14:32.707Z,99233.51
2018-03-06T11:17:01.226Z,99237.91
2018-03-06T11:19:29.730Z,99239.20
2018-03-06T11:21:58.257Z,99238.63
2018-03-06T11:24:28.783Z,99236.32
2018-03-06T11:26:57.234Z,99235.34
2018-03-06T11:29:25.646Z,99237.13
2018-03-06T11:31:54.154Z,99235.25
2018-03-06T11:34:22.598Z,99230.93
2018-03-06T11:36:51.146Z,99230.65
2018-03-06T11:39:19.699Z,99225.81
2018-03-06T11:41:48.245Z,99219.48
2018-03-06T11:44:16.723Z,99210.55
2018-03-06T11:46:45.247Z,99211.88
2018-03-06T11:49:13.895Z,99205.17
2018-03-06T11:51:42.654Z,99206.69
2018-03-06T11:54:12.204Z,99212.38
2018-03-06T11:56:40.769Z,99208.16
2018-03-06T11:59:09.550Z,99197.17
2018-03-06T12:01:38.238Z,99191.58
2018-03-06T12:04:06.875Z,99188.03
2018-03-06T12:06:36.039Z,99188.48
2018-03-06T12:09:04.603Z,99182.50
2018-03-06T12:11:33.060Z,99190.49
2018-03-06T12:14:01.559Z,99195.13
2018-03-06T12:16:30.116Z,99190.69
2018-03-06T12:18:59.448Z,99200.64
2018-03-06T12:21:28.491Z,99194.66
2018-03-06T12:23:57.050Z,99196.62
2018-03-06T12:26:25.592Z,99185.17
2018-03-06T12:32:05.459Z,99183.92
2018-03-06T12:34:35.476Z,99187.13
2018-03-06T12:37:09.755Z,99183.27
2018-03-06T12:39:39.018Z,99177.19
2018-03-06T12:42:07.678Z,99179.50
2018-03-06T12:44:36.197Z,99177.98
2018-03-06T12:47:25.427Z,99170.19
2018-03-06T12:49:58.921Z,99169.23
2018-03-06T12:52:28.323Z,99167.63
2018-03-06T12:54:56.803Z,99163.47
2018-03-06T12:57:25.261Z,99166.55
2018-03-06T12:59:56.458Z,99166.20
2018-03-06T13:02:25.066Z,99154.91
2018-03-06T13:04:53.599Z,99152.52
2018-03-06T13:07:24.172Z,99153.86
2018-03-06T13:09:57.964Z,99151.32
2018-03-06T13:12:26.849Z,99151.05
2018-03-06T13:14:56.463Z,99157.14
2018-03-06T13:17:26.507Z,99151.53
2018-03-06T13:20:06.087Z,99149.33
2018-03-06T13:22:41.843Z,99148.65
2018-03-06T13:25:10.420Z,99151.95
2018-03-06T13:28:01.839Z,99139.45
2018-03-06T13:33:30.318Z,99143.07
2018-03-06T13:39:30.912Z,99143.72
2018-03-06T13:41:59.505Z,99142.33
2018-03-06T13:47:33.241Z,99146.97
2018-03-06T13:50:02.201Z,99141.64
2018-03-06T13:52:32.253Z,99139.37
2018-03-06T13:57:58.356Z,99137.83
2018-03-06T14:00:30.243Z,99143.56
2018-03-06T14:03:00.643Z,99138.53
2018-03-06T14:05:29.562Z,99138.05
2018-03-06T14:08:04.182Z,99142.02
2018-03-06T14:10:38.579Z,99143.98
2018-03-06T14:13:08.035Z,99147.44
2018-03-06T14:15:37.035Z,99147.11
2018-03-06T14:18:06.336Z,99145.70
2018-03-06T14:20:36.805Z,99138.22
2018-03-06T14:23:05.335Z,99137.56
2018-03-06T14:25:33.744Z,99139.95
2018-03-06T14:28:04.294Z,99135.81
2018-03-06T14:30:32.720Z,99137.57
2018-03-06T14:33:01.161Z,99132.45
2018-03-06T14:35:29.868Z,99134.91
2018-03-06T14:37:58.328Z,99121.58
2018-03-06T14:40:27.320Z,99123.98
2018-03-06T14:42:59.389Z,99124.69
2018-03-06T14:45:28.272Z,99123.36
2018-03-06T14:47:56.958Z,99121.15
2018-03-06T14:50:25.417Z,99122.97
2018-03-06T14:52:53.833Z,99120.34
2018-03-06T14:55:22.331Z,99120.34
2018-03-06T14:57:51.605Z,99125.88
2018-03-06T15:00:20.220Z,99124.55
2018-03-06T15:02:48.729Z,99124.86
2018-03-06T15:05:18.553Z,99123.95
2018-03-06T15:07:47.070Z,99137.46
2018-03-06T15:10:15.750Z,99135.60
2018-03-06T15:12:45.017Z,99131.31
2018-03-06T15:15:13.949Z,99130.90
2018-03-06T15:17:42.637Z,99137.86
2018-03-06T15:20:11.891Z,99139.71
2018-03-06T15:22:40.506Z,99141.61
2018-03-06T15:25:10.066Z,99132.94
2018-03-06T15:27:39.137Z,99134.69
2018-03-06T15:30:07.755Z,99136.08
2018-03-06T15:32:38.040Z,99133.35
2018-03-06T15:35:07.348Z,99132.07
2018-03-06T15:37:38.928Z,99133.05
2018-03-06T15:40:09.469Z,99139.77
2018-03-06T15:42:38.257Z,99142.16
2018-03-06T15:45:07.444Z,99138.31
2018-03-06T15:47:36.069Z,99136.01
2018-03-06T15:50:04.757Z,99138.25
2018-03-06T15:52:33.354Z,99126.47
2018-03-06T15:55:02.692Z,99130.84
2018-03-06T15:57:31.176Z,99131.91
2018-03-06T16:00:00.843Z,99138.67
2018-03-06T16:02:30.175Z,99140.22
2018-03-06T16:04:58.819Z,99147.15
2018-03-06T16:07:27.404Z,99144.56
2018-03-06T16:09:55.979Z,99159.34
2018-03-06T16:12:24.539Z,99154.70
2018-03-06T16:14:53.812Z,99149.84
2018-03-06T16:17:22.823Z,99151.84
2018-03-06T16:19:51.398Z,99148.40
2018-03-06T16:22:19.984Z,99155.03
2018-03-06T16:24:49.673Z,99158.78
2018-03-06T16:27:18.367Z,99155.09
2018-03-06T16:29:46.976Z,99162.27
2018-03-06T16:32:15.853Z,99160.81
2018-03-06T16:34:44.729Z,99162.28
2018-03-06T16:37:14.660Z,99164.01
2018-03-06T16:39:43.339Z,99166.45
2018-03-06T16:42:12.237Z,99176.30
2018-03-06T16:44:44.037Z,99174.52
2018-03-06T16:47:13.969Z,99180.30
2018-03-06T16:49:43.027Z,99188.06
2018-03-06T16:52:15.215Z,99189.99
2018-03-06T16:54:44.208Z,99185.72
2018-03-06T16:57:15.635Z,99181.75
2018-03-06T16:59:47.058Z,99175.02
2018-03-06T17:02:16.354Z,99186.75
2018-03-06T17:04:45.725Z,99183.50
2018-03-06T17:07:16.205Z,99188.27
2018-03-06T17:09:45.966Z,99184.25
2018-03-06T17:12:15.813Z,99184.34
2018-03-06T17:14:44.931Z,99191.80
2018-03-06T17:17:14.538Z,99196.85
2018-03-06T17:19:43.100Z,99195.98
2018-03-06T17:22:11.658Z,99197.55
2018-03-06T17:24:42.218Z,99200.80
2018-03-06T17:27:13.837Z,99210.80
2018-03-06T17:29:44.473Z,99203.77
2018-03-06T17:32:14.312Z,99204.98
2018-03-06T17:34:43.574Z,99209.06
2018-03-06T17:37:12.464Z,99204.14
2018-03-06T17:39:42.697Z,99208.91
2018-03-06T17:42:13.656Z,99216.09
2018-03-06T17:44:42.633Z,99211.02
2018-03-06T17:47:11.647Z,99214.72
2018-03-06T17:49:43.196Z,99216.55
2018-03-06T17:52:11.855Z,99221.28
2018-03-06T17:54:43.518Z,99211.46
2018-03-06T17:57:13.277Z,99218.00
2018-03-06T17:59:43.446Z,99220.44
2018-03-06T18:02:15.333Z,99212.30
2018-03-06T18:04:44.085Z,99216.42
2018-03-06T18:07:15.098Z,99218.14
2018-03-06T18:09:46.743Z,99224.40
2018-03-06T18:12:16.486Z,99215.88
2018-03-06T18:14:45.096Z,99216.50
2018-03-06T18:17:15.610Z,99211.72
2018-03-06T18:19:46.682Z,99217.34
2018-03-06T18:22:19.873Z,99217.27
2018-03-06T18:24:49.026Z,99210.33
2018-03-06T18:27:17.634Z,99213.59
2018-03-06T18:29:46.505Z,99211.00
2018-03-06T18:32:17.183Z,99216.59
2018-03-06T18:34:46.226Z,99214.55
2018-03-06T18:37:16.562Z,99218.88
2018-03-06T18:39:45.590Z,99217.66
2018-03-06T18:42:14.100Z,99216.67
2018-03-06T18:44:49.201Z,99222.58
2018-03-06T18:47:21.687Z,99216.58
2018-03-06T19:32:11.089Z,99214.56
2018-03-06T19:34:39.733Z,99215.52
2018-03-06T19:37:08.493Z,99215.58
2018-03-06T19:39:37.574Z,99207.84
2018-03-06T19:42:06.062Z,99214.25
2018-03-06T19:44:34.599Z,99211.05
2018-03-06T19:47:03.591Z,99210.79
2018-03-06T19:49:33.273Z,99211.78
2018-03-06T19:52:01.752Z,99219.85
2018-03-06T19:54:30.749Z,99214.58
2018-03-06T19:56:59.458Z,99213.31
2018-03-06T19:59:27.910Z,99210.73
2018-03-06T20:01:56.422Z,99214.26
2018-03-06T20:04:25.135Z,99215.41
2018-03-06T20:06:54.163Z,99215.03
2018-03-06T20:09:23.656Z,99208.09
2018-03-06T20:11:52.315Z,99215.84
2018-03-06T20:14:27.502Z,99218.38
2018-03-06T20:16:56.087Z,99219.64
2018-03-06T20:19:30.291Z,99216.37
2018-03-06T20:21:59.869Z,99218.52
2018-03-06T20:24:33.945Z,99216.37
2018-03-06T20:27:02.496Z,99217.73
2018-03-06T20:29:31.050Z,99223.27
2018-03-06T20:32:06.447Z,99226.00
2018-03-06T20:34:41.994Z,99224.59
2018-03-06T20:37:12.824Z,99227.96
2018-03-06T20:39:47.531Z,99220.74
2018-03-06T20:42:18.681Z,99220.55
2018-03-06T20:44:58.117Z,99219.20
2018-03-06T20:47:28.727Z,99217.52
2018-03-06T20:49:58.474Z,99216.20
2018-03-06T20:52:31.385Z,99216.69
2018-03-06T20:55:06.278Z,99220.25
2018-03-06T20:57:35.198Z,99218.84
2018-03-06T21:00:14.205Z,99217.94
2018-03-06T21:02:48.114Z,99223.73
2018-03-06T21:05:18.565Z,99220.78
2018-03-06T21:07:48.164Z,99220.25
2018-03-06T21:10:17.319Z,99222.62
2018-03-06T21:12:46.135Z,99214.81
2018-03-06T21:15:15.499Z,99209.07
2018-03-06T21:17:47.769Z,99213.49
2018-03-06T21:20:17.001Z,99211.05
2018-03-06T21:22:51.329Z,99211.15
2018-03-06T21:25:20.208Z,99210.70
2018-03-06T21:27:49.000Z,99214.41
2018-03-06T21:30:17.780Z,99201.28
2018-03-06T21:32:48.232Z,99209.34
2018-03-06T21:35:17.177Z,99205.70
2018-03-06T21:37:48.592Z,99204.44
2018-03-06T21:40:17.303Z,99206.92
2018-03-06T21:42:51.279Z,99209.86
2018-03-06T21:45:20.194Z,99197.58
2018-03-06T21:47:48.776Z,99209.44
2018-03-06T21:50:18.408Z,99207.50
2018-03-06T21:52:47.757Z,99196.16
2018-03-06T21:55:16.822Z,99206.55
2018-03-06T21:57:47.060Z,99202.48
2018-03-06T22:00:18.473Z,99204.81
2018-03-06T22:02:49.004Z,99204.27
2018-03-06T22:05:18.531Z,99198.00
2018-03-06T22:07:47.176Z,99206.98
2018-03-06T22:10:17.127Z,99199.61
2018-03-06T22:12:46.705Z,99203.98
2018-03-06T22:15:17.858Z,99204.88
2018-03-06T22:17:46.771Z,99199.13
2018-03-06T22:20:16.003Z,99202.88
2018-03-06T22:22:45.266Z,99203.92
2018-03-06T22:25:14.729Z,99202.28
2018-03-06T22:27:46.485Z,99199.64
2018-03-06T22:30:15.480Z,99200.55
2018-03-06T22:32:44.087Z,99202.05
2018-03-06T22:35:12.875Z,99199.94
2018-03-06T22:37:41.351Z,99203.27
2018-03-06T22:40:10.633Z,99203.27
2018-03-06T22:42:41.729Z,99206.91
2018-03-06T22:45:10.276Z,99205.06
2018-03-06T22:47:38.850Z,99206.90
2018-03-06T22:50:07.630Z,99207.97
2018-03-06T22:52:36.111Z,99206.03
2018-03-06T22:55:05.108Z,99207.82
2018-03-06T22:57:34.358Z,99208.16
2018-03-06T23:00:03.963Z,99199.52
2018-03-06T23:02:33.289Z,99205.27
2018-03-06T23:05:02.630Z,99208.44
2018-03-06T23:07:31.198Z,99203.89
2018-03-06T23:09:59.720Z,99206.08
2018-03-06T23:12:28.370Z,99197.43
2018-03-06T23:14:56.836Z,99202.53
2018-03-06T23:17:25.437Z,99207.65
2018-03-06T23:19:54.467Z,99205.20
2018-03-06T23:22:23.000Z,99209.34
2018-03-06T23:24:51.484Z,99208.77
2018-03-06T23:27:19.969Z,99207.87
2018-03-06T23:29:48.474Z,99211.03
2018-03-06T23:32:17.313Z,99206.60
2018-03-06T23:34:46.584Z,99203.66
2018-03-06T23:37:15.020Z,99209.44
2018-03-06T23:39:43.501Z,99213.77
2018-03-06T23:42:12.015Z,99216.27
2018-03-06T23:44:40.774Z,99220.27
2018-03-06T23:47:09.460Z,99216.09
2018-03-06T23:49:38.102Z,99216.75
2018-03-06T23:52:06.798Z,99220.72
2018-03-06T23:54:35.411Z,99224.70
2018-03-06T23:57:03.990Z,99221.17
2018-03-06T23:59:33.192Z,99219.33
